Nha Trang, Viet Nam

1:04 AM ICT on February 08, 2016 (GMT +0700)
Cam Ranh Bay | | Change Station
CLOSE
Current Station
Airport
Location: Cam Ranh Bay,
Elevation: 39 ft
Nearby Weather Stations

Elev 39 ft 12.00 °N, 109.22 °E | Updated 34 minutes ago

Partly Cloudy
Partly Cloudy
70 °F
Feels Like 70 °F
N
18
Wind Variable Wind from North

Today
High -- | Low -- °F
--% Chance of Precip.
Yesterday
High -- | Low -- °F
Precip. -- in
Pressure 30.06 in
Visibility 6.2 miles
Clouds Few 1500 ft
Dew Point 55 °F
Humidity 60%
Rainfall 0.00 in
Snow Depth Not available.
6:07 AM 5:47 PM
Waning Crescent, 1% visible
METAR VVCR 071730Z 01016KT 9999 FEW015 21/13 Q1018 NOSIG
Pressure 30.06 in
Visibility 6.2 miles
Clouds Few 1500 ft
Dew Point 55 °F
Humidity 60%
Rainfall 0.00 in
Snow Depth Not available.
6:07 AM 5:47 PM
Waning Crescent, 1% visible
METAR VVCR 071730Z 01016KT 9999 FEW015 21/13 Q1018 NOSIG

10-Day Weather Forecast

No radar image for this location.
×

Almanac

Astronomy

Feb. 08, 2016 Rise Set
Actual Time
Civil Twilight
Nautical Twilight
Astronomical Twilight
Moon
Length of Visible Light
Length of Day
Tomorrow will be .
, % of the Moon is Illuminated

Today's Extremes

Country Highs Country Lows

Community

WunderPhotos

Upload Photos

1,891,263 photos uploaded!

WunderBlog® & News

Nearby

Air Quality

  Air Quality AQ Index Pollutant
Not available.

Snow Depth

Station Depth Elevation

Earthquake Activity

City Distance Mag. Time & Date
Minimum magnitude displayed is 2.5.

Coastal Water Temperatures

Place Temperature

Stations

Nearby Weather Stations

Station Location Temp. Windchill Dew Point Humidity Wind Precip. Elev Updated Type